sensor_id;sensor_type;location;lat;lon;timestamp;pressure;altitude;pressure_sealevel;temperature;humidity
9709;BME280;4893;42.024;23.098;2022-12-08T00:01:47;96693.34;;;9.11;100.00
9709;BME280;4893;42.024;23.098;2022-12-08T00:04:12;96699.19;;;9.05;100.00
9709;BME280;4893;42.024;23.098;2022-12-08T00:06:42;96638.09;;;8.65;100.00
9709;BME280;4893;42.024;23.098;2022-12-08T00:09:36;96498.44;;;7.80;100.00
9709;BME280;4893;42.024;23.098;2022-12-08T00:12:22;96710.78;;;9.17;100.00
9709;BME280;4893;42.024;23.098;2022-12-08T00:14:48;96713.03;;;9.20;100.00
9709;BME280;4893;42.024;23.098;2022-12-08T00:17:15;96644.44;;;8.85;100.00
9709;BME280;4893;42.024;23.098;2022-12-08T00:19:41;96720.59;;;9.29;100.00
9709;BME280;4893;42.024;23.098;2022-12-08T00:22:08;96646.25;;;8.85;100.00
9709;BME280;4893;42.024;23.098;2022-12-08T00:24:35;96728.06;;;9.24;100.00
9709;BME280;4893;42.024;23.098;2022-12-08T00:27:04;96724.09;;;9.14;100.00
9709;BME280;4893;42.024;23.098;2022-12-08T00:29:30;96728.97;;;9.09;100.00
9709;BME280;4893;42.024;23.098;2022-12-08T00:31:55;96723.16;;;9.07;100.00
9709;BME280;4893;42.024;23.098;2022-12-08T00:34:21;96650.56;;;8.62;100.00
9709;BME280;4893;42.024;23.098;2022-12-08T00:36:46;96639.09;;;8.56;100.00
9709;BME280;4893;42.024;23.098;2022-12-08T00:39:13;96674.13;;;8.75;100.00
9709;BME280;4893;42.024;23.098;2022-12-08T00:41:39;96630.75;;;8.46;100.00
9709;BME280;4893;42.024;23.098;2022-12-08T00:44:23;96726.47;;;8.93;100.00
9709;BME280;4893;42.024;23.098;2022-12-08T00:46:49;96715.28;;;8.92;100.00
9709;BME280;4893;42.024;23.098;2022-12-08T00:49:15;96723.56;;;8.88;100.00
9709;BME280;4893;42.024;23.098;2022-12-08T00:51:41;96646.31;;;8.30;100.00
9709;BME280;4893;42.024;23.098;2022-12-08T00:54:07;96725.81;;;8.91;100.00
9709;BME280;4893;42.024;23.098;2022-12-08T00:56:33;96661.25;;;8.59;100.00
9709;BME280;4893;42.024;23.098;2022-12-08T00:58:59;96656.34;;;8.72;100.00
9709;BME280;4893;42.024;23.098;2022-12-08T01:01:25;96664.06;;;8.80;100.00
9709;BME280;4893;42.024;23.098;2022-12-08T01:03:50;96730.53;;;9.18;100.00
9709;BME280;4893;42.024;23.098;2022-12-08T01:06:16;96734.09;;;9.17;100.00
9709;BME280;4893;42.024;23.098;2022-12-08T01:08:41;96694.19;;;9.03;100.00
9709;BME280;4893;42.024;23.098;2022-12-08T01:11:09;96683.81;;;9.03;100.00
9709;BME280;4893;42.024;23.098;2022-12-08T01:13:36;96539.16;;;8.24;100.00
9709;BME280;4893;42.024;23.098;2022-12-08T01:16:01;96730.38;;;9.42;100.00
9709;BME280;4893;42.024;23.098;2022-12-08T01:18:27;96656.84;;;8.98;100.00
9709;BME280;4893;42.024;23.098;2022-12-08T01:20:53;96719.16;;;9.27;100.00
9709;BME280;4893;42.024;23.098;2022-12-08T01:23:18;96690.16;;;9.01;100.00
9709;BME280;4893;42.024;23.098;2022-12-08T01:25:43;96655.41;;;8.65;100.00
9709;BME280;4893;42.024;23.098;2022-12-08T01:28:09;96714.13;;;9.03;100.00
9709;BME280;4893;42.024;23.098;2022-12-08T01:30:37;96701.34;;;9.01;100.00
9709;BME280;4893;42.024;23.098;2022-12-08T01:33:03;96616.53;;;8.42;100.00
9709;BME280;4893;42.024;23.098;2022-12-08T01:35:29;96691.81;;;8.94;100.00
9709;BME280;4893;42.024;23.098;2022-12-08T01:37:54;96688.19;;;8.80;100.00
9709;BME280;4893;42.024;23.098;2022-12-08T01:40:20;96702.22;;;8.86;100.00
9709;BME280;4893;42.024;23.098;2022-12-08T01:42:45;96679.94;;;8.77;100.00
9709;BME280;4893;42.024;23.098;2022-12-08T01:45:30;96669.25;;;8.80;100.00
9709;BME280;4893;42.024;23.098;2022-12-08T01:48:09;96679.78;;;8.78;100.00
9709;BME280;4893;42.024;23.098;2022-12-08T01:50:37;96689.78;;;8.81;100.00
9709;BME280;4893;42.024;23.098;2022-12-08T01:53:11;96671.69;;;8.73;100.00
9709;BME280;4893;42.024;23.098;2022-12-08T01:56:05;96683.31;;;8.77;100.00
9709;BME280;4893;42.024;23.098;2022-12-08T01:58:35;96689.81;;;8.73;100.00
9709;BME280;4893;42.024;23.098;2022-12-08T02:01:01;96700.19;;;8.73;100.00
9709;BME280;4893;42.024;23.098;2022-12-08T02:03:30;96600.94;;;8.11;100.00
9709;BME280;4893;42.024;23.098;2022-12-08T02:05:58;96691.56;;;8.81;100.00
9709;BME280;4893;42.024;23.098;2022-12-08T02:08:24;96676.78;;;8.59;100.00
9709;BME280;4893;42.024;23.098;2022-12-08T02:10:51;96687.47;;;8.56;100.00
9709;BME280;4893;42.024;23.098;2022-12-08T02:13:18;96684.59;;;8.51;100.00
9709;BME280;4893;42.024;23.098;2022-12-08T02:16:11;96612.25;;;8.18;100.00
9709;BME280;4893;42.024;23.098;2022-12-08T02:24:26;96677.69;;;8.66;100.00
9709;BME280;4893;42.024;23.098;2022-12-08T02:35:35;96668.16;;;8.66;100.00
9709;BME280;4893;42.024;23.098;2022-12-08T02:40:34;96591.22;;;8.21;100.00
9709;BME280;4893;42.024;23.098;2022-12-08T02:43:11;96652.28;;;8.69;100.00
9709;BME280;4893;42.024;23.098;2022-12-08T02:45:50;96638.31;;;8.56;100.00
9709;BME280;4893;42.024;23.098;2022-12-08T02:48:18;96659.59;;;8.66;100.00
9709;BME280;4893;42.024;23.098;2022-12-08T02:50:43;96620.59;;;8.36;100.00
9709;BME280;4893;42.024;23.098;2022-12-08T02:53:09;96589.13;;;8.17;100.00
9709;BME280;4893;42.024;23.098;2022-12-08T03:09:38;96687.41;;;8.72;100.00
9709;BME280;4893;42.024;23.098;2022-12-08T03:12:18;96668.50;;;8.63;100.00
9709;BME280;4893;42.024;23.098;2022-12-08T03:14:47;96689.31;;;8.78;100.00
9709;BME280;4893;42.024;23.098;2022-12-08T03:17:15;96675.09;;;8.74;100.00
9709;BME280;4893;42.024;23.098;2022-12-08T03:19:42;96616.56;;;8.34;100.00
9709;BME280;4893;42.024;23.098;2022-12-08T03:22:11;96669.94;;;8.74;100.00
9709;BME280;4893;42.024;23.098;2022-12-08T03:24:40;96601.03;;;8.34;100.00
9709;BME280;4893;42.024;23.098;2022-12-08T03:27:09;96671.53;;;8.75;100.00
9709;BME280;4893;42.024;23.098;2022-12-08T03:29:35;96603.47;;;8.35;100.00
9709;BME280;4893;42.024;23.098;2022-12-08T03:32:12;96655.69;;;8.70;100.00
9709;BME280;4893;42.024;23.098;2022-12-08T03:34:43;96643.13;;;8.59;100.00
9709;BME280;4893;42.024;23.098;2022-12-08T03:37:11;96652.41;;;8.76;100.00
9709;BME280;4893;42.024;23.098;2022-12-08T03:39:37;96663.81;;;8.67;100.00
9709;BME280;4893;42.024;23.098;2022-12-08T03:42:02;96673.56;;;8.57;100.00
9709;BME280;4893;42.024;23.098;2022-12-08T03:44:28;96596.72;;;8.18;100.00
9709;BME280;4893;42.024;23.098;2022-12-08T03:46:53;96649.69;;;8.38;100.00
9709;BME280;4893;42.024;23.098;2022-12-08T03:49:18;96600.59;;;8.14;100.00
9709;BME280;4893;42.024;23.098;2022-12-08T03:51:44;96637.25;;;8.34;100.00
9709;BME280;4893;42.024;23.098;2022-12-08T03:54:09;96569.63;;;7.98;100.00
9709;BME280;4893;42.024;23.098;2022-12-08T03:56:36;96637.34;;;8.49;100.00
9709;BME280;4893;42.024;23.098;2022-12-08T03:59:04;96585.03;;;8.30;100.00
9709;BME280;4893;42.024;23.098;2022-12-08T04:01:30;96657.44;;;8.77;100.00
9709;BME280;4893;42.024;23.098;2022-12-08T04:03:55;96636.63;;;8.63;100.00
9709;BME280;4893;42.024;23.098;2022-12-08T04:06:21;96666.34;;;8.75;100.00
9709;BME280;4893;42.024;23.098;2022-12-08T04:08:47;96643.31;;;8.57;100.00
9709;BME280;4893;42.024;23.098;2022-12-08T04:11:12;96610.72;;;8.40;100.00
9709;BME280;4893;42.024;23.098;2022-12-08T04:13:39;96598.16;;;8.29;100.00
9709;BME280;4893;42.024;23.098;2022-12-08T04:16:05;96662.00;;;8.75;100.00
9709;BME280;4893;42.024;23.098;2022-12-08T04:18:32;96675.22;;;8.80;100.00
9709;BME280;4893;42.024;23.098;2022-12-08T04:20:58;96670.38;;;8.77;100.00
9709;BME280;4893;42.024;23.098;2022-12-08T04:23:23;96673.44;;;8.81;100.00
9709;BME280;4893;42.024;23.098;2022-12-08T04:25:50;96663.38;;;8.86;100.00
9709;BME280;4893;42.024;23.098;2022-12-08T04:28:16;96660.78;;;8.86;100.00
9709;BME280;4893;42.024;23.098;2022-12-08T04:30:42;96582.41;;;8.38;100.00
9709;BME280;4893;42.024;23.098;2022-12-08T04:33:07;96663.53;;;8.84;100.00
9709;BME280;4893;42.024;23.098;2022-12-08T04:35:33;96590.00;;;8.40;100.00
9709;BME280;4893;42.024;23.098;2022-12-08T04:37:58;96596.94;;;8.48;100.00
9709;BME280;4893;42.024;23.098;2022-12-08T04:40:23;96588.09;;;8.34;100.00
9709;BME280;4893;42.024;23.098;2022-12-08T04:42:49;96595.31;;;8.47;100.00
9709;BME280;4893;42.024;23.098;2022-12-08T04:45:14;96601.47;;;8.46;100.00
9709;BME280;4893;42.024;23.098;2022-12-08T04:47:40;96662.13;;;8.82;100.00
9709;BME280;4893;42.024;23.098;2022-12-08T04:50:06;96670.00;;;8.88;100.00
9709;BME280;4893;42.024;23.098;2022-12-08T04:52:32;96667.28;;;8.82;100.00
9709;BME280;4893;42.024;23.098;2022-12-08T04:54:58;96601.16;;;8.40;100.00
9709;BME280;4893;42.024;23.098;2022-12-08T04:57:23;96661.31;;;8.81;100.00
9709;BME280;4893;42.024;23.098;2022-12-08T04:59:48;96678.22;;;8.92;100.00
9709;BME280;4893;42.024;23.098;2022-12-08T05:02:14;96669.50;;;8.93;100.00
9709;BME280;4893;42.024;23.098;2022-12-08T05:04:39;96680.44;;;9.03;100.00
9709;BME280;4893;42.024;23.098;2022-12-08T05:07:05;96641.41;;;8.82;100.00
9709;BME280;4893;42.024;23.098;2022-12-08T05:09:30;96644.72;;;8.90;100.00
9709;BME280;4893;42.024;23.098;2022-12-08T05:11:56;96618.22;;;8.58;100.00
9709;BME280;4893;42.024;23.098;2022-12-08T05:14:21;96615.59;;;8.66;100.00
9709;BME280;4893;42.024;23.098;2022-12-08T05:16:47;96696.13;;;9.09;100.00
9709;BME280;4893;42.024;23.098;2022-12-08T05:19:13;96617.78;;;8.54;100.00
9709;BME280;4893;42.024;23.098;2022-12-08T05:21:39;96690.84;;;8.95;100.00
9709;BME280;4893;42.024;23.098;2022-12-08T05:24:04;96696.69;;;8.89;100.00
9709;BME280;4893;42.024;23.098;2022-12-08T05:26:30;96624.84;;;8.29;100.00
9709;BME280;4893;42.024;23.098;2022-12-08T05:28:55;96606.72;;;8.21;100.00
9709;BME280;4893;42.024;23.098;2022-12-08T05:31:21;96513.38;;;7.70;100.00
9709;BME280;4893;42.024;23.098;2022-12-08T05:33:48;96635.78;;;8.39;100.00
9709;BME280;4893;42.024;23.098;2022-12-08T05:36:15;96661.25;;;8.59;100.00
9709;BME280;4893;42.024;23.098;2022-12-08T05:38:40;96704.69;;;8.79;100.00
9709;BME280;4893;42.024;23.098;2022-12-08T05:41:07;96682.34;;;8.78;100.00
9709;BME280;4893;42.024;23.098;2022-12-08T05:43:32;96719.13;;;9.04;100.00
9709;BME280;4893;42.024;23.098;2022-12-08T05:45:58;96644.41;;;8.63;100.00
9709;BME280;4893;42.024;23.098;2022-12-08T05:48:23;96655.75;;;8.62;100.00
9709;BME280;4893;42.024;23.098;2022-12-08T05:50:49;96722.88;;;8.94;100.00
9709;BME280;4893;42.024;23.098;2022-12-08T05:53:16;96657.31;;;8.71;100.00
9709;BME280;4893;42.024;23.098;2022-12-08T05:55:42;96737.00;;;9.22;100.00
9709;BME280;4893;42.024;23.098;2022-12-08T05:58:11;96673.72;;;8.86;100.00
9709;BME280;4893;42.024;23.098;2022-12-08T06:00:37;96735.50;;;9.27;100.00
9709;BME280;4893;42.024;23.098;2022-12-08T06:03:03;96660.50;;;8.81;100.00
9709;BME280;4893;42.024;23.098;2022-12-08T06:05:31;96741.50;;;9.28;100.00
9709;BME280;4893;42.024;23.098;2022-12-08T06:07:57;96727.97;;;9.10;100.00
9709;BME280;4893;42.024;23.098;2022-12-08T06:10:22;96738.00;;;9.13;100.00
9709;BME280;4893;42.024;23.098;2022-12-08T06:12:47;96647.59;;;8.73;100.00
9709;BME280;4893;42.024;23.098;2022-12-08T06:15:13;96651.81;;;8.66;100.00
9709;BME280;4893;42.024;23.098;2022-12-08T06:17:38;96669.59;;;8.77;100.00
9709;BME280;4893;42.024;23.098;2022-12-08T06:20:04;96714.38;;;9.08;100.00
9709;BME280;4893;42.024;23.098;2022-12-08T06:22:30;96734.44;;;9.14;100.00
9709;BME280;4893;42.024;23.098;2022-12-08T06:24:55;96717.72;;;8.94;100.00
9709;BME280;4893;42.024;23.098;2022-12-08T06:27:21;96734.31;;;9.07;100.00
9709;BME280;4893;42.024;23.098;2022-12-08T06:29:46;96744.22;;;9.04;100.00
9709;BME280;4893;42.024;23.098;2022-12-08T06:32:11;96742.53;;;9.19;100.00
9709;BME280;4893;42.024;23.098;2022-12-08T06:34:37;96673.38;;;8.89;100.00
9709;BME280;4893;42.024;23.098;2022-12-08T06:37:02;96746.03;;;9.48;100.00
9709;BME280;4893;42.024;23.098;2022-12-08T06:39:28;96745.59;;;9.45;100.00
9709;BME280;4893;42.024;23.098;2022-12-08T06:41:53;96732.66;;;9.45;100.00
9709;BME280;4893;42.024;23.098;2022-12-08T06:44:38;96738.44;;;9.47;100.00
9709;BME280;4893;42.024;23.098;2022-12-08T06:47:03;96672.28;;;9.14;100.00
9709;BME280;4893;42.024;23.098;2022-12-08T06:49:29;96744.09;;;9.73;100.00
9709;BME280;4893;42.024;23.098;2022-12-08T06:51:54;96710.41;;;9.50;100.00
9709;BME280;4893;42.024;23.098;2022-12-08T06:54:20;96666.56;;;9.18;100.00
9709;BME280;4893;42.024;23.098;2022-12-08T06:56:45;96738.44;;;9.47;100.00
9709;BME280;4893;42.024;23.098;2022-12-08T06:59:10;96657.31;;;9.01;100.00
9709;BME280;4893;42.024;23.098;2022-12-08T07:01:36;96665.69;;;9.26;100.00
9709;BME280;4893;42.024;23.098;2022-12-08T07:04:01;96740.19;;;9.77;100.00
9709;BME280;4893;42.024;23.098;2022-12-08T07:06:26;96643.31;;;9.33;100.00
9709;BME280;4893;42.024;23.098;2022-12-08T07:08:52;96740.25;;;10.06;100.00
9709;BME280;4893;42.024;23.098;2022-12-08T07:11:18;96735.94;;;10.21;100.00
9709;BME280;4893;42.024;23.098;2022-12-08T07:13:43;96735.06;;;10.43;100.00
9709;BME280;4893;42.024;23.098;2022-12-08T07:16:10;96708.19;;;10.22;100.00
9709;BME280;4893;42.024;23.098;2022-12-08T07:18:36;96680.91;;;10.11;100.00
9709;BME280;4893;42.024;23.098;2022-12-08T07:21:10;96744.25;;;10.46;100.00
9709;BME280;4893;42.024;23.098;2022-12-08T07:23:36;96695.47;;;10.12;100.00
9709;BME280;4893;42.024;23.098;2022-12-08T07:26:04;96767.91;;;10.36;100.00
9709;BME280;4893;42.024;23.098;2022-12-08T07:28:31;96741.50;;;10.47;100.00
9709;BME280;4893;42.024;23.098;2022-12-08T07:30:57;96704.81;;;10.50;100.00
9709;BME280;4893;42.024;23.098;2022-12-08T07:33:22;96765.03;;;11.04;100.00
9709;BME280;4893;42.024;23.098;2022-12-08T07:36:01;96775.88;;;11.07;100.00
9709;BME280;4893;42.024;23.098;2022-12-08T07:38:27;96778.19;;;11.02;100.00
9709;BME280;4893;42.024;23.098;2022-12-08T07:40:53;96636.84;;;9.89;100.00
9709;BME280;4893;42.024;23.098;2022-12-08T07:43:19;96743.13;;;10.77;100.00
9709;BME280;4893;42.024;23.098;2022-12-08T07:45:45;96768.81;;;10.87;100.00
9709;BME280;4893;42.024;23.098;2022-12-08T07:48:11;96703.09;;;10.57;100.00
9709;BME280;4893;42.024;23.098;2022-12-08T07:50:37;96769.44;;;11.03;100.00
9709;BME280;4893;42.024;23.098;2022-12-08T07:53:02;96706.94;;;10.61;100.00
9709;BME280;4893;42.024;23.098;2022-12-08T07:55:28;96783.47;;;11.09;100.00
9709;BME280;4893;42.024;23.098;2022-12-08T07:57:53;96771.00;;;11.19;100.00
9709;BME280;4893;42.024;23.098;2022-12-08T08:00:19;96791.28;;;11.45;100.00
9709;BME280;4893;42.024;23.098;2022-12-08T08:02:45;96709.59;;;11.33;100.00
9709;BME280;4893;42.024;23.098;2022-12-08T08:05:11;96795.16;;;11.84;100.00
9709;BME280;4893;42.024;23.098;2022-12-08T08:07:37;96784.13;;;12.03;100.00
9709;BME280;4893;42.024;23.098;2022-12-08T08:10:04;96800.44;;;12.39;100.00
9709;BME280;4893;42.024;23.098;2022-12-08T08:12:31;96773.84;;;12.78;100.00
9709;BME280;4893;42.024;23.098;2022-12-08T08:14:56;96769.22;;;13.08;100.00
9709;BME280;4893;42.024;23.098;2022-12-08T08:17:22;96745.50;;;13.43;100.00
9709;BME280;4893;42.024;23.098;2022-12-08T08:19:47;96757.00;;;13.81;100.00
9709;BME280;4893;42.024;23.098;2022-12-08T08:22:13;96756.50;;;13.32;100.00
9709;BME280;4893;42.024;23.098;2022-12-08T08:24:38;96789.72;;;13.17;100.00
9709;BME280;4893;42.024;23.098;2022-12-08T08:27:04;96825.38;;;13.51;100.00
9709;BME280;4893;42.024;23.098;2022-12-08T08:29:29;96757.84;;;13.22;100.00
9709;BME280;4893;42.024;23.098;2022-12-08T08:31:54;96819.69;;;13.94;100.00
9709;BME280;4893;42.024;23.098;2022-12-08T08:34:20;96824.25;;;13.66;100.00
9709;BME280;4893;42.024;23.098;2022-12-08T08:36:45;96745.00;;;13.20;100.00
9709;BME280;4893;42.024;23.098;2022-12-08T08:39:12;96791.13;;;13.80;100.00
9709;BME280;4893;42.024;23.098;2022-12-08T08:41:37;96809.72;;;14.44;100.00
9709;BME280;4893;42.024;23.098;2022-12-08T08:44:03;96799.66;;;14.67;100.00
9709;BME280;4893;42.024;23.098;2022-12-08T08:46:29;96796.91;;;15.19;100.00
9709;BME280;4893;42.024;23.098;2022-12-08T08:48:55;96755.59;;;15.41;100.00
9709;BME280;4893;42.024;23.098;2022-12-08T08:51:20;96814.81;;;15.22;100.00
9709;BME280;4893;42.024;23.098;2022-12-08T08:53:46;96819.97;;;15.48;100.00
9709;BME280;4893;42.024;23.098;2022-12-08T08:56:16;96816.78;;;15.46;100.00
9709;BME280;4893;42.024;23.098;2022-12-08T08:58:45;96825.06;;;15.30;100.00
9709;BME280;4893;42.024;23.098;2022-12-08T09:01:19;96816.50;;;14.90;100.00
9709;BME280;4893;42.024;23.098;2022-12-08T09:03:45;96808.47;;;14.79;100.00
9709;BME280;4893;42.024;23.098;2022-12-08T09:06:11;96791.63;;;14.62;100.00
9709;BME280;4893;42.024;23.098;2022-12-08T09:08:37;96796.41;;;14.19;100.00
9709;BME280;4893;42.024;23.098;2022-12-08T09:11:02;96793.03;;;14.25;100.00
9709;BME280;4893;42.024;23.098;2022-12-08T09:13:28;96774.31;;;14.15;100.00
9709;BME280;4893;42.024;23.098;2022-12-08T09:15:53;96713.63;;;13.93;100.00
9709;BME280;4893;42.024;23.098;2022-12-08T09:18:19;96782.00;;;14.36;100.00
9709;BME280;4893;42.024;23.098;2022-12-08T09:20:44;96751.19;;;14.51;100.00
9709;BME280;4893;42.024;23.098;2022-12-08T09:23:10;96780.31;;;14.81;100.00
9709;BME280;4893;42.024;23.098;2022-12-08T09:25:35;96780.91;;;14.83;100.00
9709;BME280;4893;42.024;23.098;2022-12-08T09:28:01;96712.41;;;14.22;100.00
9709;BME280;4893;42.024;23.098;2022-12-08T09:30:26;96790.00;;;14.54;100.00
9709;BME280;4893;42.024;23.098;2022-12-08T09:32:52;96787.59;;;14.40;100.00
9709;BME280;4893;42.024;23.098;2022-12-08T09:35:17;96788.00;;;14.43;100.00
9709;BME280;4893;42.024;23.098;2022-12-08T09:37:43;96769.50;;;14.32;100.00
9709;BME280;4893;42.024;23.098;2022-12-08T09:40:10;96717.44;;;14.17;100.00
9709;BME280;4893;42.024;23.098;2022-12-08T09:45:15;96759.25;;;14.30;100.00
9709;BME280;4893;42.024;23.098;2022-12-08T09:50:40;96763.47;;;13.99;100.00
9709;BME280;4893;42.024;23.098;2022-12-08T09:53:14;96756.22;;;13.94;100.00
9709;BME280;4893;42.024;23.098;2022-12-08T09:55:45;96755.00;;;13.97;100.00
9709;BME280;4893;42.024;23.098;2022-12-08T10:00:57;96753.41;;;14.02;100.00
9709;BME280;4893;42.024;23.098;2022-12-08T10:03:26;96672.84;;;13.47;100.00
9709;BME280;4893;42.024;23.098;2022-12-08T10:06:08;96745.78;;;13.87;100.00
9709;BME280;4893;42.024;23.098;2022-12-08T10:14:29;96722.09;;;14.09;100.00
9709;BME280;4893;42.024;23.098;2022-12-08T10:17:19;96738.53;;;14.16;100.00
9709;BME280;4893;42.024;23.098;2022-12-08T10:19:47;96697.97;;;13.93;100.00
9709;BME280;4893;42.024;23.098;2022-12-08T10:22:23;96731.50;;;14.23;100.00
9709;BME280;4893;42.024;23.098;2022-12-08T10:25:20;96734.97;;;14.36;100.00
9709;BME280;4893;42.024;23.098;2022-12-08T10:27:51;96721.69;;;14.05;100.00
9709;BME280;4893;42.024;23.098;2022-12-08T10:30:18;96653.19;;;13.57;100.00
9709;BME280;4893;42.024;23.098;2022-12-08T10:32:47;96719.66;;;14.14;100.00
9709;BME280;4893;42.024;23.098;2022-12-08T10:35:15;96725.28;;;14.37;100.00
9709;BME280;4893;42.024;23.098;2022-12-08T10:37:54;96721.66;;;14.57;100.00
9709;BME280;4893;42.024;23.098;2022-12-08T10:40:19;96757.22;;;14.65;100.00
9709;BME280;4893;42.024;23.098;2022-12-08T10:42:46;96646.94;;;14.30;100.00
9709;BME280;4893;42.024;23.098;2022-12-08T10:48:26;96695.56;;;14.31;100.00
9709;BME280;4893;42.024;23.098;2022-12-08T10:50:58;96711.41;;;14.49;100.00
9709;BME280;4893;42.024;23.098;2022-12-08T10:53:25;96709.38;;;14.58;100.00
9709;BME280;4893;42.024;23.098;2022-12-08T10:58:37;96703.50;;;14.75;100.00
9709;BME280;4893;42.024;23.098;2022-12-08T11:03:34;96705.25;;;14.94;100.00
9709;BME280;4893;42.024;23.098;2022-12-08T11:06:09;96693.16;;;15.00;100.00
9709;BME280;4893;42.024;23.098;2022-12-08T11:08:53;96640.25;;;14.54;100.00
9709;BME280;4893;42.024;23.098;2022-12-08T11:11:21;96709.34;;;14.64;100.00
9709;BME280;4893;42.024;23.098;2022-12-08T11:13:49;96709.75;;;14.74;100.00
9709;BME280;4893;42.024;23.098;2022-12-08T11:16:17;96709.41;;;14.32;100.00
9709;BME280;4893;42.024;23.098;2022-12-08T11:18:46;96691.94;;;14.26;100.00
9709;BME280;4893;42.024;23.098;2022-12-08T11:21:19;96693.53;;;14.40;100.00
9709;BME280;4893;42.024;23.098;2022-12-08T11:23:49;96659.78;;;14.19;100.00
9709;BME280;4893;42.024;23.098;2022-12-08T11:26:29;96555.25;;;13.42;100.00
9709;BME280;4893;42.024;23.098;2022-12-08T11:28:55;96686.31;;;14.29;100.00
9709;BME280;4893;42.024;23.098;2022-12-08T11:31:28;96686.72;;;14.26;100.00
9709;BME280;4893;42.024;23.098;2022-12-08T11:33:55;96691.53;;;14.03;100.00
9709;BME280;4893;42.024;23.098;2022-12-08T11:36:22;96616.44;;;13.39;100.00
9709;BME280;4893;42.024;23.098;2022-12-08T11:38:50;96680.50;;;13.81;100.00
9709;BME280;4893;42.024;23.098;2022-12-08T11:41:23;96662.41;;;13.79;100.00
9709;BME280;4893;42.024;23.098;2022-12-08T11:49:09;96598.78;;;13.54;100.00
9709;BME280;4893;42.024;23.098;2022-12-08T11:51:39;96664.22;;;13.99;100.00
9709;BME280;4893;42.024;23.098;2022-12-08T11:54:33;96665.84;;;14.00;100.00
9709;BME280;4893;42.024;23.098;2022-12-08T11:56:58;96660.00;;;14.04;100.00
9709;BME280;4893;42.024;23.098;2022-12-08T11:59:37;96656.78;;;14.15;100.00
9709;BME280;4893;42.024;23.098;2022-12-08T12:02:11;96630.09;;;13.93;100.00
9709;BME280;4893;42.024;23.098;2022-12-08T12:13:58;96653.38;;;14.08;100.00
9709;BME280;4893;42.024;23.098;2022-12-08T12:19:04;96645.34;;;14.10;100.00
9709;BME280;4893;42.024;23.098;2022-12-08T12:21:47;96641.31;;;14.07;100.00
9709;BME280;4893;42.024;23.098;2022-12-08T12:24:17;96643.56;;;13.77;100.00
9709;BME280;4893;42.024;23.098;2022-12-08T12:29:23;96645.34;;;13.83;100.00
9709;BME280;4893;42.024;23.098;2022-12-08T12:31:58;96654.59;;;13.73;100.00
9709;BME280;4893;42.024;23.098;2022-12-08T12:34:31;96655.81;;;13.70;100.00
9709;BME280;4893;42.024;23.098;2022-12-08T12:37:05;96668.03;;;13.70;100.00
9709;BME280;4893;42.024;23.098;2022-12-08T12:39:46;96600.00;;;13.32;100.00
9709;BME280;4893;42.024;23.098;2022-12-08T13:03:45;96632.72;;;13.54;100.00
9709;BME280;4893;42.024;23.098;2022-12-08T13:06:13;96597.19;;;13.40;100.00
9709;BME280;4893;42.024;23.098;2022-12-08T13:08:52;96646.94;;;13.78;100.00
9709;BME280;4893;42.024;23.098;2022-12-08T13:11:20;96652.97;;;13.59;100.00
9709;BME280;4893;42.024;23.098;2022-12-08T13:14:01;96581.53;;;13.14;100.00
9709;BME280;4893;42.024;23.098;2022-12-08T13:16:32;96627.91;;;13.45;100.00
9709;BME280;4893;42.024;23.098;2022-12-08T13:19:00;96621.25;;;13.42;100.00
9709;BME280;4893;42.024;23.098;2022-12-08T13:21:36;96579.31;;;13.11;100.00
9709;BME280;4893;42.024;23.098;2022-12-08T13:24:27;96630.69;;;13.43;100.00
9709;BME280;4893;42.024;23.098;2022-12-08T13:29:28;96595.34;;;13.15;100.00
9709;BME280;4893;42.024;23.098;2022-12-08T13:32:02;96560.19;;;12.91;100.00
9709;BME280;4893;42.024;23.098;2022-12-08T13:42:13;96564.97;;;12.81;100.00
9709;BME280;4893;42.024;23.098;2022-12-08T13:44:48;96629.66;;;13.25;100.00
9709;BME280;4893;42.024;23.098;2022-12-08T13:47:19;96626.44;;;13.16;100.00
9709;BME280;4893;42.024;23.098;2022-12-08T13:49:58;96628.88;;;13.24;100.00
9709;BME280;4893;42.024;23.098;2022-12-08T13:52:35;96571.41;;;12.85;100.00
9709;BME280;4893;42.024;23.098;2022-12-08T13:55:02;96639.88;;;13.20;100.00
9709;BME280;4893;42.024;23.098;2022-12-08T13:57:31;96641.88;;;13.11;100.00
9709;BME280;4893;42.024;23.098;2022-12-08T14:00:07;96641.69;;;13.13;100.00
9709;BME280;4893;42.024;23.098;2022-12-08T14:02:42;96638.66;;;13.09;100.00
9709;BME280;4893;42.024;23.098;2022-12-08T14:05:09;96569.75;;;12.65;100.00
9709;BME280;4893;42.024;23.098;2022-12-08T14:07:35;96477.41;;;12.07;100.00
9709;BME280;4893;42.024;23.098;2022-12-08T14:10:07;96635.06;;;13.10;100.00
9709;BME280;4893;42.024;23.098;2022-12-08T14:12:34;96580.78;;;12.73;100.00
9709;BME280;4893;42.024;23.098;2022-12-08T14:15:03;96654.94;;;13.11;100.00
9709;BME280;4893;42.024;23.098;2022-12-08T14:17:30;96647.47;;;13.08;100.00
9709;BME280;4893;42.024;23.098;2022-12-08T14:22:37;96658.50;;;13.04;100.00
9709;BME280;4893;42.024;23.098;2022-12-08T14:25:05;96580.53;;;12.55;100.00
9709;BME280;4893;42.024;23.098;2022-12-08T14:27:33;96649.22;;;12.88;100.00
9709;BME280;4893;42.024;23.098;2022-12-08T14:30:03;96658.84;;;12.94;100.00
9709;BME280;4893;42.024;23.098;2022-12-08T14:37:37;96659.25;;;12.91;100.00
9709;BME280;4893;42.024;23.098;2022-12-08T14:40:20;96594.75;;;12.46;100.00
9709;BME280;4893;42.024;23.098;2022-12-08T14:42:53;96640.09;;;12.71;100.00
9709;BME280;4893;42.024;23.098;2022-12-08T14:45:29;96667.66;;;12.87;100.00
9709;BME280;4893;42.024;23.098;2022-12-08T14:48:49;96655.38;;;12.81;100.00
9709;BME280;4893;42.024;23.098;2022-12-08T14:54:26;96647.94;;;12.78;100.00
9709;BME280;4893;42.024;23.098;2022-12-08T14:56:51;96588.47;;;12.34;100.00
9709;BME280;4893;42.024;23.098;2022-12-08T14:59:27;96656.19;;;12.81;100.00
9709;BME280;4893;42.024;23.098;2022-12-08T15:04:58;96671.16;;;12.66;100.00
9709;BME280;4893;42.024;23.098;2022-12-08T15:07:30;96658.34;;;12.71;100.00
9709;BME280;4893;42.024;23.098;2022-12-08T15:12:54;96649.94;;;12.69;100.00
9709;BME280;4893;42.024;23.098;2022-12-08T15:15:21;96631.00;;;12.47;100.00